sensor_id;sensor_type;location;lat;lon;timestamp;pressure;altitude;pressure_sealevel;temperature;humidity
70555;BME280;58104;52.744;15.242;2023-04-03T00:02:18;102152.64;;;16.58;37.49
70555;BME280;58104;52.744;15.242;2023-04-03T00:04:44;102153.64;;;16.48;37.62
70555;BME280;58104;52.744;15.242;2023-04-03T00:07:09;102154.16;;;16.53;37.60
70555;BME280;58104;52.744;15.242;2023-04-03T00:09:35;102152.92;;;16.53;37.84
70555;BME280;58104;52.744;15.242;2023-04-03T00:12:00;102154.30;;;16.51;37.86
70555;BME280;58104;52.744;15.242;2023-04-03T00:14:26;102153.92;;;16.57;38.19
70555;BME280;58104;52.744;15.242;2023-04-03T00:16:51;102154.78;;;16.48;38.33
70555;BME280;58104;52.744;15.242;2023-04-03T00:19:17;102153.83;;;16.55;38.41
70555;BME280;58104;52.744;15.242;2023-04-03T00:21:42;102155.72;;;16.55;38.75
70555;BME280;58104;52.744;15.242;2023-04-03T00:24:08;102153.92;;;16.55;39.16
70555;BME280;58104;52.744;15.242;2023-04-03T00:26:33;102156.01;;;16.65;39.36
70555;BME280;58104;52.744;15.242;2023-04-03T00:28:58;102155.05;;;16.54;39.61
70555;BME280;58104;52.744;15.242;2023-04-03T00:31:24;102158.54;;;16.63;39.86
70555;BME280;58104;52.744;15.242;2023-04-03T00:33:49;102158.92;;;16.60;40.07
70555;BME280;58104;52.744;15.242;2023-04-03T00:36:15;102159.13;;;16.58;40.09
70555;BME280;58104;52.744;15.242;2023-04-03T00:38:40;102159.84;;;16.65;40.41
70555;BME280;58104;52.744;15.242;2023-04-03T00:41:06;102159.90;;;16.62;40.82
70555;BME280;58104;52.744;15.242;2023-04-03T00:43:32;102163.08;;;16.61;41.02
70555;BME280;58104;52.744;15.242;2023-04-03T00:45:57;102162.57;;;16.62;41.44
70555;BME280;58104;52.744;15.242;2023-04-03T00:48:28;102163.17;;;16.63;41.58
70555;BME280;58104;52.744;15.242;2023-04-03T00:50:48;102165.59;;;16.64;41.82
70555;BME280;58104;52.744;15.242;2023-04-03T00:53:16;102164.19;;;16.61;42.12
70555;BME280;58104;52.744;15.242;2023-04-03T00:55:39;102172.35;;;16.64;42.26
70555;BME280;58104;52.744;15.242;2023-04-03T00:58:05;102171.59;;;16.60;42.52
70555;BME280;58104;52.744;15.242;2023-04-03T01:00:29;102171.61;;;16.55;42.59
70555;BME280;58104;52.744;15.242;2023-04-03T01:02:55;102172.40;;;16.58;42.73
70555;BME280;58104;52.744;15.242;2023-04-03T01:05:21;102173.89;;;16.68;42.85
70555;BME280;58104;52.744;15.242;2023-04-03T01:07:46;102172.82;;;16.60;43.05
70555;BME280;58104;52.744;15.242;2023-04-03T01:10:16;102174.86;;;16.66;42.86
70555;BME280;58104;52.744;15.242;2023-04-03T01:12:38;102172.33;;;16.57;43.04
70555;BME280;58104;52.744;15.242;2023-04-03T01:15:08;102174.26;;;16.66;43.30
70555;BME280;58104;52.744;15.242;2023-04-03T01:17:30;102176.53;;;16.72;43.47
70555;BME280;58104;52.744;15.242;2023-04-03T01:20:02;102178.92;;;16.64;43.47
70555;BME280;58104;52.744;15.242;2023-04-03T01:22:20;102175.48;;;16.68;43.48
70555;BME280;58104;52.744;15.242;2023-04-03T01:24:44;102175.08;;;16.63;43.58
70555;BME280;58104;52.744;15.242;2023-04-03T01:27:10;102173.80;;;16.72;43.54
70555;BME280;58104;52.744;15.242;2023-04-03T01:29:35;102176.07;;;16.75;43.80
70555;BME280;58104;52.744;15.242;2023-04-03T01:32:02;102176.29;;;16.71;44.05
70555;BME280;58104;52.744;15.242;2023-04-03T01:34:27;102180.95;;;16.68;43.86
70555;BME280;58104;52.744;15.242;2023-04-03T01:36:51;102180.05;;;16.60;43.71
70555;BME280;58104;52.744;15.242;2023-04-03T01:39:17;102182.59;;;16.59;44.03
70555;BME280;58104;52.744;15.242;2023-04-03T01:41:42;102182.31;;;16.49;43.97
70555;BME280;58104;52.744;15.242;2023-04-03T01:44:08;102186.20;;;16.53;43.82
70555;BME280;58104;52.744;15.242;2023-04-03T01:46:33;102191.16;;;16.63;43.87
70555;BME280;58104;52.744;15.242;2023-04-03T01:48:59;102192.34;;;16.51;43.99
70555;BME280;58104;52.744;15.242;2023-04-03T01:51:24;102196.48;;;16.50;43.95
70555;BME280;58104;52.744;15.242;2023-04-03T01:53:50;102195.30;;;16.58;43.90
70555;BME280;58104;52.744;15.242;2023-04-03T01:56:15;102197.39;;;16.61;44.31
70555;BME280;58104;52.744;15.242;2023-04-03T01:58:40;102197.85;;;16.58;44.17
70555;BME280;58104;52.744;15.242;2023-04-03T02:01:06;102198.92;;;16.61;44.33
70555;BME280;58104;52.744;15.242;2023-04-03T02:03:31;102200.00;;;16.50;44.63
70555;BME280;58104;52.744;15.242;2023-04-03T02:05:57;102198.12;;;16.55;44.54
70555;BME280;58104;52.744;15.242;2023-04-03T02:08:22;102198.92;;;16.60;44.40
70555;BME280;58104;52.744;15.242;2023-04-03T02:10:48;102197.78;;;16.66;44.60
70555;BME280;58104;52.744;15.242;2023-04-03T02:13:13;102198.91;;;16.62;44.65
70555;BME280;58104;52.744;15.242;2023-04-03T02:15:39;102196.31;;;16.65;44.68
70555;BME280;58104;52.744;15.242;2023-04-03T02:18:04;102197.93;;;16.61;44.54
70555;BME280;58104;52.744;15.242;2023-04-03T02:20:29;102194.84;;;16.58;44.75
70555;BME280;58104;52.744;15.242;2023-04-03T02:22:55;102196.68;;;16.64;44.70
70555;BME280;58104;52.744;15.242;2023-04-03T02:25:20;102198.06;;;16.54;44.82
70555;BME280;58104;52.744;15.242;2023-04-03T02:27:46;102194.63;;;16.62;44.86
70555;BME280;58104;52.744;15.242;2023-04-03T02:30:12;102199.48;;;16.57;44.93
70555;BME280;58104;52.744;15.242;2023-04-03T02:32:37;102200.06;;;16.57;44.94
70555;BME280;58104;52.744;15.242;2023-04-03T02:35:02;102203.55;;;16.56;44.96
70555;BME280;58104;52.744;15.242;2023-04-03T02:37:28;102204.14;;;16.52;44.99
70555;BME280;58104;52.744;15.242;2023-04-03T02:39:53;102205.06;;;16.54;44.83
70555;BME280;58104;52.744;15.242;2023-04-03T02:42:19;102209.52;;;16.61;45.03
70555;BME280;58104;52.744;15.242;2023-04-03T02:44:44;102213.41;;;16.65;44.82
70555;BME280;58104;52.744;15.242;2023-04-03T02:47:10;102214.56;;;16.60;45.36
70555;BME280;58104;52.744;15.242;2023-04-03T02:49:35;102221.56;;;16.58;45.36
70555;BME280;58104;52.744;15.242;2023-04-03T02:52:00;102224.08;;;16.63;45.37
70555;BME280;58104;52.744;15.242;2023-04-03T02:54:26;102224.03;;;16.62;45.50
70555;BME280;58104;52.744;15.242;2023-04-03T02:56:51;102229.58;;;16.61;45.51
70555;BME280;58104;52.744;15.242;2023-04-03T02:59:17;102231.17;;;16.58;45.63
70555;BME280;58104;52.744;15.242;2023-04-03T03:01:42;102229.96;;;16.59;45.54
70555;BME280;58104;52.744;15.242;2023-04-03T03:04:08;102233.48;;;16.66;45.72
70555;BME280;58104;52.744;15.242;2023-04-03T03:06:33;102238.31;;;16.53;45.61
70555;BME280;58104;52.744;15.242;2023-04-03T03:08:59;102242.74;;;16.58;45.46
70555;BME280;58104;52.744;15.242;2023-04-03T03:11:24;102237.89;;;16.50;45.71
70555;BME280;58104;52.744;15.242;2023-04-03T03:13:50;102240.80;;;16.55;45.83
70555;BME280;58104;52.744;15.242;2023-04-03T03:16:15;102243.14;;;16.54;45.70
70555;BME280;58104;52.744;15.242;2023-04-03T03:18:40;102240.70;;;16.62;45.78
70555;BME280;58104;52.744;15.242;2023-04-03T03:21:06;102243.25;;;16.54;45.69
70555;BME280;58104;52.744;15.242;2023-04-03T03:23:32;102244.29;;;16.52;45.87
70555;BME280;58104;52.744;15.242;2023-04-03T03:25:58;102246.75;;;16.59;46.08
70555;BME280;58104;52.744;15.242;2023-04-03T03:28:22;102243.98;;;16.52;45.96
70555;BME280;58104;52.744;15.242;2023-04-03T03:30:47;102245.26;;;16.59;45.93
70555;BME280;58104;52.744;15.242;2023-04-03T03:33:13;102245.29;;;16.53;45.91
70555;BME280;58104;52.744;15.242;2023-04-03T03:35:38;102243.55;;;16.52;46.07
70555;BME280;58104;52.744;15.242;2023-04-03T03:38:03;102243.86;;;16.53;45.97
70555;BME280;58104;52.744;15.242;2023-04-03T03:40:29;102244.88;;;16.60;46.18
70555;BME280;58104;52.744;15.242;2023-04-03T03:42:54;102245.25;;;16.51;46.40
70555;BME280;58104;52.744;15.242;2023-04-03T03:45:20;102246.40;;;16.58;46.17
70555;BME280;58104;52.744;15.242;2023-04-03T03:47:45;102252.07;;;16.64;46.38
70555;BME280;58104;52.744;15.242;2023-04-03T03:50:11;102248.08;;;16.65;46.08
70555;BME280;58104;52.744;15.242;2023-04-03T03:52:36;102247.22;;;16.59;46.38
70555;BME280;58104;52.744;15.242;2023-04-03T03:55:02;102248.68;;;16.61;46.43
70555;BME280;58104;52.744;15.242;2023-04-03T03:57:27;102248.83;;;16.58;46.47
70555;BME280;58104;52.744;15.242;2023-04-03T03:59:52;102247.33;;;16.63;46.15
70555;BME280;58104;52.744;15.242;2023-04-03T04:02:18;102249.71;;;16.63;46.44
70555;BME280;58104;52.744;15.242;2023-04-03T04:04:43;102253.42;;;16.64;46.28
70555;BME280;58104;52.744;15.242;2023-04-03T04:07:09;102251.82;;;16.58;46.13
70555;BME280;58104;52.744;15.242;2023-04-03T04:09:34;102251.08;;;16.63;46.49
70555;BME280;58104;52.744;15.242;2023-04-03T04:12:00;102255.28;;;16.57;46.18
70555;BME280;58104;52.744;15.242;2023-04-03T04:14:25;102255.23;;;16.53;46.25
70555;BME280;58104;52.744;15.242;2023-04-03T04:16:51;102256.47;;;16.63;46.41
70555;BME280;58104;52.744;15.242;2023-04-03T04:19:16;102257.23;;;16.61;46.34
70555;BME280;58104;52.744;15.242;2023-04-03T04:21:42;102264.63;;;16.69;46.33
70555;BME280;58104;52.744;15.242;2023-04-03T04:24:07;102263.64;;;16.64;46.29
70555;BME280;58104;52.744;15.242;2023-04-03T04:26:33;102263.31;;;16.71;46.18
70555;BME280;58104;52.744;15.242;2023-04-03T04:28:58;102260.84;;;16.61;46.32
70555;BME280;58104;52.744;15.242;2023-04-03T04:31:24;102262.02;;;16.57;46.33
70555;BME280;58104;52.744;15.242;2023-04-03T04:33:49;102263.75;;;16.57;46.14
70555;BME280;58104;52.744;15.242;2023-04-03T04:36:14;102263.76;;;16.62;45.75
70555;BME280;58104;52.744;15.242;2023-04-03T04:38:40;102264.86;;;16.67;45.99
70555;BME280;58104;52.744;15.242;2023-04-03T04:41:05;102264.97;;;16.54;46.03
70555;BME280;58104;52.744;15.242;2023-04-03T04:43:31;102269.41;;;16.47;46.15
70555;BME280;58104;52.744;15.242;2023-04-03T04:46:01;102268.86;;;16.60;46.15
70555;BME280;58104;52.744;15.242;2023-04-03T04:48:22;102269.41;;;16.52;46.09
70555;BME280;58104;52.744;15.242;2023-04-03T04:50:47;102272.85;;;16.55;46.19
70555;BME280;58104;52.744;15.242;2023-04-03T04:53:12;102276.00;;;16.59;46.07
70555;BME280;58104;52.744;15.242;2023-04-03T04:55:38;102276.27;;;16.61;46.29
70555;BME280;58104;52.744;15.242;2023-04-03T04:58:03;102276.85;;;16.72;46.05
70555;BME280;58104;52.744;15.242;2023-04-03T05:00:29;102281.69;;;16.71;46.05
70555;BME280;58104;52.744;15.242;2023-04-03T05:02:54;102281.51;;;17.07;46.83
70555;BME280;58104;52.744;15.242;2023-04-03T05:05:20;102287.69;;;17.19;47.35
70555;BME280;58104;52.744;15.242;2023-04-03T05:07:45;102290.30;;;17.29;47.33
70555;BME280;58104;52.744;15.242;2023-04-03T05:10:11;102293.59;;;17.45;46.05
70555;BME280;58104;52.744;15.242;2023-04-03T05:12:36;102291.75;;;17.17;40.72
70555;BME280;58104;52.744;15.242;2023-04-03T05:15:01;102288.74;;;17.12;38.77
70555;BME280;58104;52.744;15.242;2023-04-03T05:19:52;102292.22;;;17.00;37.65
70555;BME280;58104;52.744;15.242;2023-04-03T05:22:18;102293.83;;;17.11;36.65
70555;BME280;58104;52.744;15.242;2023-04-03T05:24:43;102291.38;;;17.08;36.57
70555;BME280;58104;52.744;15.242;2023-04-03T05:27:08;102291.45;;;16.31;37.06
70555;BME280;58104;52.744;15.242;2023-04-03T05:29:34;102295.60;;;16.62;35.90
70555;BME280;58104;52.744;15.242;2023-04-03T05:31:59;102295.86;;;16.92;35.88
70555;BME280;58104;52.744;15.242;2023-04-03T05:34:25;102295.59;;;16.42;35.83
70555;BME280;58104;52.744;15.242;2023-04-03T05:36:50;102298.69;;;16.40;35.67
70555;BME280;58104;52.744;15.242;2023-04-03T05:39:15;102295.09;;;16.38;35.55
70555;BME280;58104;52.744;15.242;2023-04-03T05:41:41;102299.13;;;16.53;34.97
70555;BME280;58104;52.744;15.242;2023-04-03T05:44:06;102299.60;;;16.25;35.57
70555;BME280;58104;52.744;15.242;2023-04-03T05:46:32;102302.34;;;16.33;36.07
70555;BME280;58104;52.744;15.242;2023-04-03T05:48:57;102301.70;;;16.59;34.87
70555;BME280;58104;52.744;15.242;2023-04-03T05:51:25;102301.63;;;16.86;35.15
70555;BME280;58104;52.744;15.242;2023-04-03T05:53:48;102306.45;;;16.68;34.66
70555;BME280;58104;52.744;15.242;2023-04-03T05:56:14;102306.75;;;16.77;35.54
70555;BME280;58104;52.744;15.242;2023-04-03T05:58:39;102305.22;;;16.78;35.58
70555;BME280;58104;52.744;15.242;2023-04-03T06:01:04;102306.47;;;16.39;35.06
70555;BME280;58104;52.744;15.242;2023-04-03T06:03:30;102303.81;;;16.08;35.81
70555;BME280;58104;52.744;15.242;2023-04-03T06:05:55;102302.26;;;16.35;35.20
70555;BME280;58104;52.744;15.242;2023-04-03T06:08:21;102307.45;;;16.38;37.78
70555;BME280;58104;52.744;15.242;2023-04-03T06:10:46;102306.78;;;16.48;37.87
70555;BME280;58104;52.744;15.242;2023-04-03T06:13:12;102304.62;;;16.63;37.75
70555;BME280;58104;52.744;15.242;2023-04-03T06:15:37;102308.46;;;16.67;37.77
70555;BME280;58104;52.744;15.242;2023-04-03T06:18:03;102310.13;;;16.74;38.17
70555;BME280;58104;52.744;15.242;2023-04-03T06:20:28;102310.69;;;16.89;38.05
70555;BME280;58104;52.744;15.242;2023-04-03T06:22:54;102311.64;;;16.83;37.96
70555;BME280;58104;52.744;15.242;2023-04-03T06:25:19;102313.65;;;16.83;37.96
70555;BME280;58104;52.744;15.242;2023-04-03T06:27:44;102319.70;;;16.87;37.88
70555;BME280;58104;52.744;15.242;2023-04-03T06:30:10;102323.03;;;16.94;37.92
70555;BME280;58104;52.744;15.242;2023-04-03T06:32:35;102322.90;;;16.95;37.65
70555;BME280;58104;52.744;15.242;2023-04-03T06:35:01;102322.14;;;17.09;37.93
70555;BME280;58104;52.744;15.242;2023-04-03T06:37:26;102323.75;;;17.05;37.87
70555;BME280;58104;52.744;15.242;2023-04-03T06:39:52;102322.38;;;17.17;37.56
70555;BME280;58104;52.744;15.242;2023-04-03T06:42:17;102324.97;;;17.22;37.48
70555;BME280;58104;52.744;15.242;2023-04-03T06:44:43;102325.85;;;17.31;37.38
70555;BME280;58104;52.744;15.242;2023-04-03T06:47:09;102326.54;;;17.30;37.47
70555;BME280;58104;52.744;15.242;2023-04-03T06:49:34;102331.68;;;17.41;37.53
70555;BME280;58104;52.744;15.242;2023-04-03T06:51:59;102332.20;;;17.44;37.95
70555;BME280;58104;52.744;15.242;2023-04-03T06:54:25;102330.77;;;17.53;37.36
70555;BME280;58104;52.744;15.242;2023-04-03T06:56:50;102332.96;;;17.64;36.97
70555;BME280;58104;52.744;15.242;2023-04-03T06:59:15;102334.63;;;17.72;36.65
70555;BME280;58104;52.744;15.242;2023-04-03T07:01:41;102339.49;;;17.76;36.35
70555;BME280;58104;52.744;15.242;2023-04-03T07:04:06;102345.13;;;17.89;36.02
70555;BME280;58104;52.744;15.242;2023-04-03T07:06:32;102342.74;;;18.06;36.33
70555;BME280;58104;52.744;15.242;2023-04-03T07:08:57;102353.10;;;18.21;36.06
70555;BME280;58104;52.744;15.242;2023-04-03T07:11:23;102353.79;;;18.25;36.20
70555;BME280;58104;52.744;15.242;2023-04-03T07:13:48;102358.94;;;18.47;35.98
70555;BME280;58104;52.744;15.242;2023-04-03T07:16:14;102361.40;;;18.74;35.52
70555;BME280;58104;52.744;15.242;2023-04-03T07:18:39;102357.88;;;18.90;35.37
70555;BME280;58104;52.744;15.242;2023-04-03T07:21:05;102363.65;;;19.04;35.40
70555;BME280;58104;52.744;15.242;2023-04-03T07:23:30;102368.09;;;19.21;35.40
70555;BME280;58104;52.744;15.242;2023-04-03T07:25:56;102372.59;;;19.42;34.88
70555;BME280;58104;52.744;15.242;2023-04-03T07:28:22;102373.98;;;19.55;34.72
70555;BME280;58104;52.744;15.242;2023-04-03T07:30:48;102375.18;;;19.79;34.26
70555;BME280;58104;52.744;15.242;2023-04-03T07:33:13;102374.05;;;19.93;33.96
70555;BME280;58104;52.744;15.242;2023-04-03T07:35:37;102374.38;;;20.23;33.64
70555;BME280;58104;52.744;15.242;2023-04-03T07:38:02;102377.26;;;20.33;33.44
70555;BME280;58104;52.744;15.242;2023-04-03T07:40:28;102380.84;;;20.47;33.56
70555;BME280;58104;52.744;15.242;2023-04-03T07:42:53;102385.41;;;20.39;33.46
70555;BME280;58104;52.744;15.242;2023-04-03T07:45:19;102387.33;;;20.57;33.51
70555;BME280;58104;52.744;15.242;2023-04-03T07:47:44;102390.52;;;20.67;33.47
70555;BME280;58104;52.744;15.242;2023-04-03T07:50:10;102390.44;;;20.79;33.45
70555;BME280;58104;52.744;15.242;2023-04-03T07:52:35;102386.63;;;20.67;33.61
70555;BME280;58104;52.744;15.242;2023-04-03T07:55:00;102387.34;;;20.78;33.68
70555;BME280;58104;52.744;15.242;2023-04-03T07:57:26;102391.60;;;20.66;34.03
70555;BME280;58104;52.744;15.242;2023-04-03T07:59:51;102389.93;;;20.69;33.94
70555;BME280;58104;52.744;15.242;2023-04-03T08:02:17;102391.24;;;20.60;34.04
70555;BME280;58104;52.744;15.242;2023-04-03T08:04:42;102390.32;;;20.56;34.11
70555;BME280;58104;52.744;15.242;2023-04-03T08:07:08;102388.43;;;20.59;34.33
70555;BME280;58104;52.744;15.242;2023-04-03T08:09:33;102386.18;;;20.64;34.42
70555;BME280;58104;52.744;15.242;2023-04-03T08:11:58;102378.17;;;20.51;34.47
70555;BME280;58104;52.744;15.242;2023-04-03T08:14:24;102388.92;;;20.49;34.23
70555;BME280;58104;52.744;15.242;2023-04-03T08:16:50;102380.76;;;20.28;34.05
70555;BME280;58104;52.744;15.242;2023-04-03T08:19:15;102380.52;;;20.08;32.39
70555;BME280;58104;52.744;15.242;2023-04-03T08:21:41;102386.79;;;19.88;29.35
70555;BME280;58104;52.744;15.242;2023-04-03T08:24:06;102382.17;;;19.71;29.58
70555;BME280;58104;52.744;15.242;2023-04-03T08:26:31;102380.82;;;19.69;26.45
70555;BME280;58104;52.744;15.242;2023-04-03T08:28:57;102384.04;;;19.73;26.00
70555;BME280;58104;52.744;15.242;2023-04-03T08:31:22;102372.34;;;19.57;25.80
70555;BME280;58104;52.744;15.242;2023-04-03T08:33:48;102375.71;;;19.64;25.18
70555;BME280;58104;52.744;15.242;2023-04-03T08:36:18;102374.20;;;19.55;25.31
70555;BME280;58104;52.744;15.242;2023-04-03T08:38:38;102374.57;;;19.63;25.98
70555;BME280;58104;52.744;15.242;2023-04-03T08:41:10;102375.29;;;19.97;27.28
70555;BME280;58104;52.744;15.242;2023-04-03T08:43:36;102373.99;;;20.31;27.65
70555;BME280;58104;52.744;15.242;2023-04-03T08:45:57;102371.83;;;20.00;26.81
70555;BME280;58104;52.744;15.242;2023-04-03T08:48:25;102375.10;;;20.10;27.37
70555;BME280;58104;52.744;15.242;2023-04-03T08:50:48;102380.57;;;19.92;27.69
70555;BME280;58104;52.744;15.242;2023-04-03T08:53:15;102377.86;;;19.60;26.76
70555;BME280;58104;52.744;15.242;2023-04-03T08:55:42;102381.31;;;19.07;26.43
70555;BME280;58104;52.744;15.242;2023-04-03T08:58:04;102386.70;;;18.54;26.74
70555;BME280;58104;52.744;15.242;2023-04-03T09:00:31;102382.04;;;18.31;26.76
70555;BME280;58104;52.744;15.242;2023-04-03T09:02:55;102381.35;;;18.28;26.58
70555;BME280;58104;52.744;15.242;2023-04-03T09:05:20;102384.24;;;18.04;27.13
70555;BME280;58104;52.744;15.242;2023-04-03T09:07:47;102385.21;;;18.02;26.83
70555;BME280;58104;52.744;15.242;2023-04-03T09:10:12;102381.11;;;17.83;27.07
70555;BME280;58104;52.744;15.242;2023-04-03T09:12:38;102379.46;;;17.74;26.60
70555;BME280;58104;52.744;15.242;2023-04-03T09:15:10;102383.00;;;17.60;27.38
70555;BME280;58104;52.744;15.242;2023-04-03T09:17:37;102379.77;;;17.43;27.89
70555;BME280;58104;52.744;15.242;2023-04-03T09:19:56;102380.62;;;17.48;27.47
70555;BME280;58104;52.744;15.242;2023-04-03T09:22:22;102382.92;;;17.51;27.33
70555;BME280;58104;52.744;15.242;2023-04-03T09:24:46;102389.76;;;17.48;27.45
70555;BME280;58104;52.744;15.242;2023-04-03T09:27:10;102390.80;;;17.35;27.86
70555;BME280;58104;52.744;15.242;2023-04-03T09:29:35;102382.78;;;17.41;28.33
70555;BME280;58104;52.744;15.242;2023-04-03T09:32:01;102378.02;;;17.43;28.33
70555;BME280;58104;52.744;15.242;2023-04-03T09:34:27;102377.99;;;17.43;28.35
70555;BME280;58104;52.744;15.242;2023-04-03T09:36:51;102376.73;;;17.46;28.47
70555;BME280;58104;52.744;15.242;2023-04-03T09:39:17;102380.16;;;17.28;29.00
70555;BME280;58104;52.744;15.242;2023-04-03T09:41:41;102378.04;;;16.97;29.18
70555;BME280;58104;52.744;15.242;2023-04-03T09:46:33;102375.57;;;16.72;29.83
70555;BME280;58104;52.744;15.242;2023-04-03T09:48:59;102375.28;;;16.52;30.03
70555;BME280;58104;52.744;15.242;2023-04-03T09:51:25;102371.71;;;16.61;30.11
70555;BME280;58104;52.744;15.242;2023-04-03T09:53:48;102369.76;;;16.44;30.10
70555;BME280;58104;52.744;15.242;2023-04-03T09:56:19;102370.94;;;16.39;30.35
70555;BME280;58104;52.744;15.242;2023-04-03T09:58:40;102367.52;;;16.26;30.37
70555;BME280;58104;52.744;15.242;2023-04-03T10:01:04;102367.00;;;16.32;29.79
70555;BME280;58104;52.744;15.242;2023-04-03T10:03:32;102364.53;;;16.35;29.89
70555;BME280;58104;52.744;15.242;2023-04-03T10:05:55;102366.53;;;16.40;29.51
70555;BME280;58104;52.744;15.242;2023-04-03T10:08:24;102366.85;;;16.93;31.57
70555;BME280;58104;52.744;15.242;2023-04-03T10:10:48;102368.04;;;17.40;31.77
70555;BME280;58104;52.744;15.242;2023-04-03T10:13:13;102357.61;;;17.86;31.45
70555;BME280;58104;52.744;15.242;2023-04-03T10:15:41;102358.90;;;18.07;31.66
70555;BME280;58104;52.744;15.242;2023-04-03T10:18:07;102358.98;;;18.40;31.53
70555;BME280;58104;52.744;15.242;2023-04-03T10:20:34;102366.11;;;18.50;31.66
70555;BME280;58104;52.744;15.242;2023-04-03T10:23:02;102365.06;;;18.63;32.17
70555;BME280;58104;52.744;15.242;2023-04-03T10:25:25;102363.13;;;18.79;32.33
70555;BME280;58104;52.744;15.242;2023-04-03T10:27:53;102363.13;;;18.82;32.35
70555;BME280;58104;52.744;15.242;2023-04-03T10:30:21;102359.63;;;18.98;32.52
70555;BME280;58104;52.744;15.242;2023-04-03T10:32:44;102355.50;;;19.05;32.40
70555;BME280;58104;52.744;15.242;2023-04-03T10:35:08;102359.14;;;19.08;32.41
70555;BME280;58104;52.744;15.242;2023-04-03T10:37:30;102357.92;;;19.14;32.49
70555;BME280;58104;52.744;15.242;2023-04-03T10:39:56;102352.13;;;19.32;32.75
70555;BME280;58104;52.744;15.242;2023-04-03T10:42:25;102348.37;;;19.26;32.65
70555;BME280;58104;52.744;15.242;2023-04-03T10:44:52;102350.79;;;19.26;32.72
70555;BME280;58104;52.744;15.242;2023-04-03T10:47:13;102346.53;;;19.27;32.52
70555;BME280;58104;52.744;15.242;2023-04-03T10:49:43;102341.43;;;19.34;33.05
70555;BME280;58104;52.744;15.242;2023-04-03T10:52:06;102343.56;;;20.22;31.73
70555;BME280;58104;52.744;15.242;2023-04-03T10:54:26;102340.52;;;20.39;31.27
70555;BME280;58104;52.744;15.242;2023-04-03T10:56:52;102336.93;;;20.78;30.95
70555;BME280;58104;52.744;15.242;2023-04-03T10:59:23;102332.32;;;20.94;30.69
70555;BME280;58104;52.744;15.242;2023-04-03T11:01:43;102328.87;;;20.98;30.70
70555;BME280;58104;52.744;15.242;2023-04-03T11:04:06;102326.90;;;20.80;31.42
70555;BME280;58104;52.744;15.242;2023-04-03T11:06:37;102328.03;;;20.74;31.23
70555;BME280;58104;52.744;15.242;2023-04-03T11:09:01;102326.46;;;20.79;31.39
70555;BME280;58104;52.744;15.242;2023-04-03T11:11:27;102328.85;;;20.92;30.97
70555;BME280;58104;52.744;15.242;2023-04-03T11:13:52;102323.57;;;21.02;30.81
70555;BME280;58104;52.744;15.242;2023-04-03T11:16:19;102323.59;;;21.08;30.96
70555;BME280;58104;52.744;15.242;2023-04-03T11:18:44;102324.68;;;21.15;31.09
70555;BME280;58104;52.744;15.242;2023-04-03T11:21:10;102324.22;;;21.03;31.08
70555;BME280;58104;52.744;15.242;2023-04-03T11:23:34;102321.87;;;21.19;31.07
70555;BME280;58104;52.744;15.242;2023-04-03T11:26:10;102318.91;;;21.17;31.17
70555;BME280;58104;52.744;15.242;2023-04-03T11:28:21;102311.74;;;21.17;29.16
70555;BME280;58104;52.744;15.242;2023-04-03T11:30:51;102303.67;;;20.10;26.04
70555;BME280;58104;52.744;15.242;2023-04-03T11:33:23;102299.09;;;20.34;26.56
70555;BME280;58104;52.744;15.242;2023-04-03T11:35:38;102296.07;;;20.24;25.99
70555;BME280;58104;52.744;15.242;2023-04-03T11:38:04;102291.47;;;20.22;24.95
70555;BME280;58104;52.744;15.242;2023-04-03T11:40:29;102286.66;;;20.19;26.17
70555;BME280;58104;52.744;15.242;2023-04-03T11:42:55;102275.86;;;19.49;25.50
70555;BME280;58104;52.744;15.242;2023-04-03T11:45:31;102277.13;;;19.41;23.70
70555;BME280;58104;52.744;15.242;2023-04-03T11:47:46;102278.15;;;19.39;25.81
70555;BME280;58104;52.744;15.242;2023-04-03T11:55:01;102271.42;;;17.70;26.40
70555;BME280;58104;52.744;15.242;2023-04-03T11:59:51;102273.52;;;18.88;26.38
70555;BME280;58104;52.744;15.242;2023-04-03T12:07:15;102255.36;;;19.49;25.34
70555;BME280;58104;52.744;15.242;2023-04-03T12:12:00;102256.00;;;19.40;23.17
70555;BME280;58104;52.744;15.242;2023-04-03T12:14:24;102264.57;;;19.19;24.40
70555;BME280;58104;52.744;15.242;2023-04-03T12:16:49;102268.67;;;18.36;25.28
70555;BME280;58104;52.744;15.242;2023-04-03T12:26:37;102257.20;;;18.04;25.55
70555;BME280;58104;52.744;15.242;2023-04-03T12:28:57;102261.46;;;18.60;24.09
70555;BME280;58104;52.744;15.242;2023-04-03T12:31:25;102261.13;;;18.58;25.83
70555;BME280;58104;52.744;15.242;2023-04-03T12:34:02;102255.25;;;18.93;27.31
70555;BME280;58104;52.744;15.242;2023-04-03T12:36:18;102260.44;;;18.17;24.13
70555;BME280;58104;52.744;15.242;2023-04-03T12:38:52;102256.05;;;17.85;25.79
70555;BME280;58104;52.744;15.242;2023-04-03T12:43:41;102250.67;;;17.72;26.43
70555;BME280;58104;52.744;15.242;2023-04-03T12:46:02;102254.52;;;17.80;26.51
70555;BME280;58104;52.744;15.242;2023-04-03T12:48:24;102254.94;;;17.92;27.00
70555;BME280;58104;52.744;15.242;2023-04-03T12:50:47;102250.10;;;17.98;26.52
70555;BME280;58104;52.744;15.242;2023-04-03T12:53:14;102249.90;;;17.84;27.04
70555;BME280;58104;52.744;15.242;2023-04-03T12:55:37;102243.57;;;17.81;26.66
70555;BME280;58104;52.744;15.242;2023-04-03T13:00:31;102246.81;;;17.46;26.28
70555;BME280;58104;52.744;15.242;2023-04-03T13:02:53;102252.14;;;17.58;28.06